sensor_id;sensor_type;location;lat;lon;timestamp;P1;durP1;ratioP1;P2;durP2;ratioP2
483;SDS011;228;48.922;12.198;2023-05-07T04:01:09;6.00;;;5.07;;
483;SDS011;228;48.922;12.198;2023-05-07T04:03:36;6.97;;;5.27;;
483;SDS011;228;48.922;12.198;2023-05-07T04:06:03;5.47;;;4.73;;
483;SDS011;228;48.922;12.198;2023-05-07T04:08:32;5.73;;;4.73;;
483;SDS011;228;48.922;12.198;2023-05-07T04:10:58;6.00;;;5.10;;
483;SDS011;228;48.922;12.198;2023-05-07T04:13:29;5.73;;;5.13;;
483;SDS011;228;48.922;12.198;2023-05-07T04:15:57;6.90;;;5.40;;
483;SDS011;228;48.922;12.198;2023-05-07T04:18:24;6.30;;;5.70;;
483;SDS011;228;48.922;12.198;2023-05-07T04:20:50;6.00;;;5.13;;
483;SDS011;228;48.922;12.198;2023-05-07T04:23:17;6.80;;;5.70;;
483;SDS011;228;48.922;12.198;2023-05-07T04:25:43;6.43;;;5.60;;
483;SDS011;228;48.922;12.198;2023-05-07T04:28:29;6.10;;;5.50;;
483;SDS011;228;48.922;12.198;2023-05-07T04:30:57;6.43;;;5.33;;
483;SDS011;228;48.922;12.198;2023-05-07T04:33:23;7.70;;;5.43;;
483;SDS011;228;48.922;12.198;2023-05-07T04:35:50;6.17;;;5.20;;
483;SDS011;228;48.922;12.198;2023-05-07T04:38:16;6.73;;;5.30;;
483;SDS011;228;48.922;12.198;2023-05-07T04:40:44;5.60;;;5.00;;
483;SDS011;228;48.922;12.198;2023-05-07T04:43:14;6.97;;;5.50;;
483;SDS011;228;48.922;12.198;2023-05-07T04:45:46;6.00;;;5.40;;
483;SDS011;228;48.922;12.198;2023-05-07T04:48:12;6.20;;;5.50;;
483;SDS011;228;48.922;12.198;2023-05-07T04:50:40;7.00;;;6.30;;
483;SDS011;228;48.922;12.198;2023-05-07T04:53:06;7.60;;;5.80;;
483;SDS011;228;48.922;12.198;2023-05-07T04:55:32;6.13;;;5.53;;
483;SDS011;228;48.922;12.198;2023-05-07T04:57:58;7.80;;;6.33;;
483;SDS011;228;48.922;12.198;2023-05-07T05:00:26;7.33;;;6.03;;
483;SDS011;228;48.922;12.198;2023-05-07T05:02:54;6.03;;;5.43;;
483;SDS011;228;48.922;12.198;2023-05-07T05:05:21;6.90;;;6.13;;
483;SDS011;228;48.922;12.198;2023-05-07T05:07:50;6.83;;;6.10;;
483;SDS011;228;48.922;12.198;2023-05-07T05:10:17;7.57;;;6.47;;
483;SDS011;228;48.922;12.198;2023-05-07T05:12:43;7.60;;;6.60;;
483;SDS011;228;48.922;12.198;2023-05-07T05:15:10;7.67;;;6.57;;
483;SDS011;228;48.922;12.198;2023-05-07T05:17:38;7.33;;;6.60;;
483;SDS011;228;48.922;12.198;2023-05-07T05:20:05;7.30;;;6.60;;
483;SDS011;228;48.922;12.198;2023-05-07T05:22:33;7.87;;;6.53;;
483;SDS011;228;48.922;12.198;2023-05-07T05:25:00;7.70;;;6.40;;
483;SDS011;228;48.922;12.198;2023-05-07T05:27:26;7.40;;;6.50;;
483;SDS011;228;48.922;12.198;2023-05-07T05:29:53;7.73;;;6.93;;
483;SDS011;228;48.922;12.198;2023-05-07T05:32:19;8.70;;;7.40;;
483;SDS011;228;48.922;12.198;2023-05-07T05:34:45;7.40;;;6.40;;
483;SDS011;228;48.922;12.198;2023-05-07T05:37:11;7.03;;;6.30;;
483;SDS011;228;48.922;12.198;2023-05-07T05:39:37;7.70;;;6.67;;
483;SDS011;228;48.922;12.198;2023-05-07T05:42:04;8.23;;;6.43;;
483;SDS011;228;48.922;12.198;2023-05-07T05:44:33;7.00;;;6.27;;
483;SDS011;228;48.922;12.198;2023-05-07T05:46:59;7.50;;;6.80;;
483;SDS011;228;48.922;12.198;2023-05-07T05:49:25;8.83;;;6.80;;
483;SDS011;228;48.922;12.198;2023-05-07T05:51:51;7.10;;;6.40;;
483;SDS011;228;48.922;12.198;2023-05-07T05:54:17;7.53;;;6.73;;
483;SDS011;228;48.922;12.198;2023-05-07T05:56:43;6.73;;;6.03;;
483;SDS011;228;48.922;12.198;2023-05-07T05:59:10;6.50;;;5.80;;
483;SDS011;228;48.922;12.198;2023-05-07T06:01:37;7.17;;;6.13;;
483;SDS011;228;48.922;12.198;2023-05-07T06:04:04;7.67;;;6.50;;
483;SDS011;228;48.922;12.198;2023-05-07T06:06:30;7.10;;;6.40;;
483;SDS011;228;48.922;12.198;2023-05-07T06:08:57;7.03;;;6.33;;
483;SDS011;228;48.922;12.198;2023-05-07T06:11:29;7.10;;;6.20;;
483;SDS011;228;48.922;12.198;2023-05-07T06:13:57;6.60;;;5.90;;
483;SDS011;228;48.922;12.198;2023-05-07T06:16:24;8.67;;;6.27;;
483;SDS011;228;48.922;12.198;2023-05-07T06:18:50;8.63;;;6.33;;
483;SDS011;228;48.922;12.198;2023-05-07T06:21:17;9.40;;;6.67;;
483;SDS011;228;48.922;12.198;2023-05-07T06:23:43;9.03;;;5.97;;
483;SDS011;228;48.922;12.198;2023-05-07T06:26:10;7.20;;;5.90;;
483;SDS011;228;48.922;12.198;2023-05-07T06:28:39;7.07;;;6.37;;
483;SDS011;228;48.922;12.198;2023-05-07T06:31:16;6.60;;;5.77;;
483;SDS011;228;48.922;12.198;2023-05-07T06:33:58;6.93;;;6.23;;
483;SDS011;228;48.922;12.198;2023-05-07T06:36:31;6.77;;;5.93;;
483;SDS011;228;48.922;12.198;2023-05-07T06:38:59;7.87;;;6.60;;
483;SDS011;228;48.922;12.198;2023-05-07T06:41:25;6.70;;;5.90;;
483;SDS011;228;48.922;12.198;2023-05-07T06:43:51;5.90;;;5.30;;
483;SDS011;228;48.922;12.198;2023-05-07T06:46:29;6.50;;;5.90;;
483;SDS011;228;48.922;12.198;2023-05-07T06:48:55;6.77;;;6.00;;
483;SDS011;228;48.922;12.198;2023-05-07T06:51:22;6.20;;;5.60;;
483;SDS011;228;48.922;12.198;2023-05-07T06:53:49;6.07;;;5.47;;
483;SDS011;228;48.922;12.198;2023-05-07T06:56:15;5.40;;;4.80;;
483;SDS011;228;48.922;12.198;2023-05-07T06:58:41;6.32;;;5.40;;
483;SDS011;228;48.922;12.198;2023-05-07T07:01:08;8.35;;;5.28;;
483;SDS011;228;48.922;12.198;2023-05-07T07:03:36;6.50;;;5.30;;
483;SDS011;228;48.922;12.198;2023-05-07T07:06:02;5.57;;;4.97;;
483;SDS011;228;48.922;12.198;2023-05-07T07:08:29;6.07;;;5.22;;
483;SDS011;228;48.922;12.198;2023-05-07T07:10:55;5.55;;;5.00;;
483;SDS011;228;48.922;12.198;2023-05-07T07:13:22;7.03;;;5.18;;
483;SDS011;228;48.922;12.198;2023-05-07T07:15:48;6.57;;;5.80;;
483;SDS011;228;48.922;12.198;2023-05-07T07:18:15;7.00;;;5.68;;
483;SDS011;228;48.922;12.198;2023-05-07T07:20:42;6.30;;;5.00;;
483;SDS011;228;48.922;12.198;2023-05-07T07:23:09;5.60;;;5.10;;
483;SDS011;228;48.922;12.198;2023-05-07T07:25:35;5.18;;;4.68;;
483;SDS011;228;48.922;12.198;2023-05-07T07:28:02;5.28;;;4.78;;
483;SDS011;228;48.922;12.198;2023-05-07T07:30:28;4.50;;;4.10;;
483;SDS011;228;48.922;12.198;2023-05-07T07:32:54;4.57;;;4.15;;
483;SDS011;228;48.922;12.198;2023-05-07T07:35:25;6.53;;;4.68;;
483;SDS011;228;48.922;12.198;2023-05-07T07:37:51;5.47;;;4.72;;
483;SDS011;228;48.922;12.198;2023-05-07T07:40:18;5.32;;;4.82;;
483;SDS011;228;48.922;12.198;2023-05-07T07:42:44;4.80;;;4.40;;
483;SDS011;228;48.922;12.198;2023-05-07T07:45:11;4.50;;;4.10;;
483;SDS011;228;48.922;12.198;2023-05-07T07:47:41;4.72;;;4.32;;
483;SDS011;228;48.922;12.198;2023-05-07T07:50:08;4.93;;;4.28;;
483;SDS011;228;48.922;12.198;2023-05-07T07:52:35;4.65;;;4.25;;
483;SDS011;228;48.922;12.198;2023-05-07T07:55:01;4.70;;;3.80;;
483;SDS011;228;48.922;12.198;2023-05-07T07:57:29;4.65;;;4.25;;
483;SDS011;228;48.922;12.198;2023-05-07T07:59:55;4.90;;;4.40;;
483;SDS011;228;48.922;12.198;2023-05-07T08:02:21;5.95;;;4.07;;
483;SDS011;228;48.922;12.198;2023-05-07T08:04:49;5.47;;;4.30;;
483;SDS011;228;48.922;12.198;2023-05-07T08:07:16;4.40;;;4.00;;
483;SDS011;228;48.922;12.198;2023-05-07T08:09:46;3.85;;;3.53;;
483;SDS011;228;48.922;12.198;2023-05-07T08:12:14;4.18;;;3.78;;
483;SDS011;228;48.922;12.198;2023-05-07T08:14:41;4.88;;;3.75;;
483;SDS011;228;48.922;12.198;2023-05-07T08:17:08;4.53;;;4.03;;
483;SDS011;228;48.922;12.198;2023-05-07T08:19:36;4.20;;;3.80;;
483;SDS011;228;48.922;12.198;2023-05-07T08:22:04;5.95;;;3.85;;
483;SDS011;228;48.922;12.198;2023-05-07T08:24:31;4.05;;;3.65;;
483;SDS011;228;48.922;12.198;2023-05-07T08:26:57;3.83;;;3.38;;
483;SDS011;228;48.922;12.198;2023-05-07T08:29:23;4.40;;;4.00;;
483;SDS011;228;48.922;12.198;2023-05-07T08:31:49;5.13;;;3.67;;
483;SDS011;228;48.922;12.198;2023-05-07T08:34:15;4.13;;;3.72;;
483;SDS011;228;48.922;12.198;2023-05-07T08:36:44;4.43;;;4.00;;
483;SDS011;228;48.922;12.198;2023-05-07T08:39:17;3.95;;;3.55;;
483;SDS011;228;48.922;12.198;2023-05-07T08:41:45;4.60;;;4.20;;
483;SDS011;228;48.922;12.198;2023-05-07T08:44:12;3.88;;;3.47;;
483;SDS011;228;48.922;12.198;2023-05-07T08:46:39;4.45;;;4.05;;
483;SDS011;228;48.922;12.198;2023-05-07T08:49:07;4.50;;;4.07;;
483;SDS011;228;48.922;12.198;2023-05-07T08:51:34;4.57;;;4.18;;
483;SDS011;228;48.922;12.198;2023-05-07T08:54:01;4.70;;;4.22;;
483;SDS011;228;48.922;12.198;2023-05-07T08:56:31;4.68;;;4.28;;
483;SDS011;228;48.922;12.198;2023-05-07T08:58:57;4.93;;;4.10;;
483;SDS011;228;48.922;12.198;2023-05-07T09:01:25;4.90;;;4.00;;
483;SDS011;228;48.922;12.198;2023-05-07T09:03:51;5.07;;;3.67;;
483;SDS011;228;48.922;12.198;2023-05-07T09:06:20;3.88;;;3.58;;
483;SDS011;228;48.922;12.198;2023-05-07T09:08:50;4.40;;;4.00;;
483;SDS011;228;48.922;12.198;2023-05-07T09:11:21;4.28;;;3.88;;
483;SDS011;228;48.922;12.198;2023-05-07T09:13:53;4.47;;;4.07;;
483;SDS011;228;48.922;12.198;2023-05-07T09:16:22;5.95;;;4.30;;
483;SDS011;228;48.922;12.198;2023-05-07T09:18:51;4.57;;;4.18;;
483;SDS011;228;48.922;12.198;2023-05-07T09:21:19;4.45;;;3.67;;
483;SDS011;228;48.922;12.198;2023-05-07T09:23:50;4.70;;;4.30;;
483;SDS011;228;48.922;12.198;2023-05-07T09:26:33;4.40;;;4.00;;
483;SDS011;228;48.922;12.198;2023-05-07T09:29:30;4.70;;;4.30;;
483;SDS011;228;48.922;12.198;2023-05-07T09:32:29;4.32;;;3.92;;
483;SDS011;228;48.922;12.198;2023-05-07T09:35:01;5.25;;;4.75;;
483;SDS011;228;48.922;12.198;2023-05-07T09:37:32;5.18;;;4.68;;
483;SDS011;228;48.922;12.198;2023-05-07T09:39:59;5.50;;;5.00;;
483;SDS011;228;48.922;12.198;2023-05-07T09:42:29;4.70;;;4.30;;
483;SDS011;228;48.922;12.198;2023-05-07T09:44:59;4.60;;;4.20;;
483;SDS011;228;48.922;12.198;2023-05-07T09:47:34;5.35;;;4.85;;
483;SDS011;228;48.922;12.198;2023-05-07T09:50:08;5.47;;;4.82;;
483;SDS011;228;48.922;12.198;2023-05-07T09:52:39;5.10;;;4.60;;
483;SDS011;228;48.922;12.198;2023-05-07T09:55:12;6.53;;;4.28;;
483;SDS011;228;48.922;12.198;2023-05-07T09:57:44;4.72;;;4.20;;
483;SDS011;228;48.922;12.198;2023-05-07T10:00:12;4.47;;;4.07;;
483;SDS011;228;48.922;12.198;2023-05-07T10:02:58;4.95;;;4.47;;
483;SDS011;228;48.922;12.198;2023-05-07T10:05:49;4.38;;;3.97;;
483;SDS011;228;48.922;12.198;2023-05-07T10:08:19;4.30;;;3.90;;
483;SDS011;228;48.922;12.198;2023-05-07T10:10:48;4.30;;;3.90;;
483;SDS011;228;48.922;12.198;2023-05-07T10:13:20;4.63;;;4.22;;
483;SDS011;228;48.922;12.198;2023-05-07T10:15:50;4.38;;;3.97;;
483;SDS011;228;48.922;12.198;2023-05-07T10:18:18;4.32;;;3.92;;
483;SDS011;228;48.922;12.198;2023-05-07T10:20:56;3.65;;;3.35;;
483;SDS011;228;48.922;12.198;2023-05-07T10:23:33;4.03;;;3.63;;
483;SDS011;228;48.922;12.198;2023-05-07T10:26:03;4.45;;;4.05;;
483;SDS011;228;48.922;12.198;2023-05-07T10:28:35;3.72;;;3.42;;
483;SDS011;228;48.922;12.198;2023-05-07T10:34:26;4.43;;;3.88;;
483;SDS011;228;48.922;12.198;2023-05-07T10:37:00;4.60;;;4.20;;
483;SDS011;228;48.922;12.198;2023-05-07T10:39:27;4.55;;;4.15;;
483;SDS011;228;48.922;12.198;2023-05-07T10:41:54;4.03;;;3.63;;
483;SDS011;228;48.922;12.198;2023-05-07T10:44:26;4.15;;;3.75;;
483;SDS011;228;48.922;12.198;2023-05-07T10:47:04;4.00;;;3.70;;
483;SDS011;228;48.922;12.198;2023-05-07T10:50:20;4.72;;;4.15;;
483;SDS011;228;48.922;12.198;2023-05-07T10:52:30;4.97;;;4.00;;
483;SDS011;228;48.922;12.198;2023-05-07T10:57:50;5.50;;;3.90;;
483;SDS011;228;48.922;12.198;2023-05-07T11:05:31;3.45;;;3.15;;
483;SDS011;228;48.922;12.198;2023-05-07T11:08:08;4.20;;;3.55;;
483;SDS011;228;48.922;12.198;2023-05-07T11:13:48;4.78;;;3.38;;
483;SDS011;228;48.922;12.198;2023-05-07T11:16:49;3.58;;;3.28;;
483;SDS011;228;48.922;12.198;2023-05-07T11:25:18;3.50;;;3.20;;
483;SDS011;228;48.922;12.198;2023-05-07T11:27:49;4.15;;;3.40;;
483;SDS011;228;48.922;12.198;2023-05-07T11:30:18;3.60;;;3.30;;
483;SDS011;228;48.922;12.198;2023-05-07T11:32:47;3.78;;;3.47;;
483;SDS011;228;48.922;12.198;2023-05-07T11:35:15;3.72;;;3.42;;
483;SDS011;228;48.922;12.198;2023-05-07T11:37:43;3.97;;;3.58;;
483;SDS011;228;48.922;12.198;2023-05-07T11:40:12;3.75;;;3.45;;
483;SDS011;228;48.922;12.198;2023-05-07T11:42:39;5.05;;;4.22;;
483;SDS011;228;48.922;12.198;2023-05-07T11:45:08;4.75;;;4.35;;
483;SDS011;228;48.922;12.198;2023-05-07T11:47:35;4.22;;;3.90;;
483;SDS011;228;48.922;12.198;2023-05-07T11:50:05;4.40;;;4.00;;
483;SDS011;228;48.922;12.198;2023-05-07T11:52:33;4.57;;;4.18;;
483;SDS011;228;48.922;12.198;2023-05-07T11:55:01;3.92;;;3.60;;
483;SDS011;228;48.922;12.198;2023-05-07T11:57:30;3.75;;;3.42;;
483;SDS011;228;48.922;12.198;2023-05-07T11:59:58;3.92;;;3.55;;
483;SDS011;228;48.922;12.198;2023-05-07T12:02:28;4.10;;;3.80;;
483;SDS011;228;48.922;12.198;2023-05-07T12:04:54;4.20;;;3.78;;
483;SDS011;228;48.922;12.198;2023-05-07T12:07:20;4.80;;;4.05;;
483;SDS011;228;48.922;12.198;2023-05-07T12:09:49;4.03;;;3.72;;
483;SDS011;228;48.922;12.198;2023-05-07T12:12:15;3.63;;;2.97;;
483;SDS011;228;48.922;12.198;2023-05-07T12:14:43;5.30;;;4.90;;
483;SDS011;228;48.922;12.198;2023-05-07T12:17:11;5.75;;;5.25;;
483;SDS011;228;48.922;12.198;2023-05-07T12:19:40;5.05;;;4.65;;
483;SDS011;228;48.922;12.198;2023-05-07T12:22:08;6.15;;;5.55;;
483;SDS011;228;48.922;12.198;2023-05-07T12:24:47;4.80;;;4.40;;
483;SDS011;228;48.922;12.198;2023-05-07T12:27:16;5.25;;;4.75;;
483;SDS011;228;48.922;12.198;2023-05-07T12:29:44;5.50;;;5.00;;
483;SDS011;228;48.922;12.198;2023-05-07T12:32:17;6.70;;;4.60;;
483;SDS011;228;48.922;12.198;2023-05-07T12:34:46;5.63;;;5.10;;
483;SDS011;228;48.922;12.198;2023-05-07T12:37:15;4.82;;;4.43;;
483;SDS011;228;48.922;12.198;2023-05-07T12:39:48;4.32;;;4.03;;
483;SDS011;228;48.922;12.198;2023-05-07T12:42:19;4.60;;;4.20;;
483;SDS011;228;48.922;12.198;2023-05-07T12:44:51;4.40;;;4.00;;
483;SDS011;228;48.922;12.198;2023-05-07T12:47:17;4.47;;;4.07;;
483;SDS011;228;48.922;12.198;2023-05-07T12:49:43;4.20;;;3.80;;
483;SDS011;228;48.922;12.198;2023-05-07T12:52:11;4.13;;;3.83;;
483;SDS011;228;48.922;12.198;2023-05-07T12:54:37;5.30;;;4.20;;
483;SDS011;228;48.922;12.198;2023-05-07T12:57:04;4.05;;;3.75;;
483;SDS011;228;48.922;12.198;2023-05-07T12:59:38;4.35;;;3.95;;
483;SDS011;228;48.922;12.198;2023-05-07T13:02:06;3.72;;;3.42;;
483;SDS011;228;48.922;12.198;2023-05-07T13:04:35;3.75;;;3.47;;
483;SDS011;228;48.922;12.198;2023-05-07T13:07:01;4.15;;;3.17;;
483;SDS011;228;48.922;12.198;2023-05-07T13:09:28;3.75;;;3.45;;
483;SDS011;228;48.922;12.198;2023-05-07T13:11:55;3.58;;;3.33;;
483;SDS011;228;48.922;12.198;2023-05-07T13:14:21;3.53;;;3.22;;
483;SDS011;228;48.922;12.198;2023-05-07T13:16:47;3.50;;;3.20;;
483;SDS011;228;48.922;12.198;2023-05-07T13:19:13;4.43;;;3.88;;
483;SDS011;228;48.922;12.198;2023-05-07T13:21:39;3.20;;;3.00;;
483;SDS011;228;48.922;12.198;2023-05-07T13:24:05;3.60;;;3.30;;
483;SDS011;228;48.922;12.198;2023-05-07T13:26:32;3.30;;;3.00;;
483;SDS011;228;48.922;12.198;2023-05-07T13:28:58;3.50;;;3.20;;
483;SDS011;228;48.922;12.198;2023-05-07T13:31:24;3.83;;;3.22;;
483;SDS011;228;48.922;12.198;2023-05-07T13:33:50;3.20;;;3.00;;
483;SDS011;228;48.922;12.198;2023-05-07T13:36:17;3.53;;;3.20;;
483;SDS011;228;48.922;12.198;2023-05-07T13:38:43;3.53;;;3.22;;
483;SDS011;228;48.922;12.198;2023-05-07T13:41:09;3.10;;;2.90;;
483;SDS011;228;48.922;12.198;2023-05-07T13:43:37;3.00;;;2.80;;
483;SDS011;228;48.922;12.198;2023-05-07T13:46:03;3.05;;;2.85;;
483;SDS011;228;48.922;12.198;2023-05-07T13:48:29;3.22;;;3.03;;
483;SDS011;228;48.922;12.198;2023-05-07T13:50:55;3.03;;;2.83;;
483;SDS011;228;48.922;12.198;2023-05-07T13:53:21;3.08;;;2.88;;
483;SDS011;228;48.922;12.198;2023-05-07T13:55:47;3.03;;;2.80;;
483;SDS011;228;48.922;12.198;2023-05-07T13:58:13;3.55;;;3.20;;
483;SDS011;228;48.922;12.198;2023-05-07T14:00:39;3.20;;;3.00;;
483;SDS011;228;48.922;12.198;2023-05-07T14:03:05;3.45;;;3.25;;
483;SDS011;228;48.922;12.198;2023-05-07T14:05:31;3.55;;;3.25;;
483;SDS011;228;48.922;12.198;2023-05-07T14:07:58;3.30;;;3.00;;
483;SDS011;228;48.922;12.198;2023-05-07T14:10:25;3.83;;;3.30;;
483;SDS011;228;48.922;12.198;2023-05-07T14:12:51;3.30;;;2.90;;
483;SDS011;228;48.922;12.198;2023-05-07T14:15:17;3.10;;;2.88;;
483;SDS011;228;48.922;12.198;2023-05-07T14:17:44;3.20;;;3.00;;
483;SDS011;228;48.922;12.198;2023-05-07T14:20:10;3.50;;;3.28;;
483;SDS011;228;48.922;12.198;2023-05-07T14:22:37;3.28;;;3.05;;
483;SDS011;228;48.922;12.198;2023-05-07T14:25:03;3.30;;;3.00;;
483;SDS011;228;48.922;12.198;2023-05-07T14:27:30;3.55;;;3.00;;
483;SDS011;228;48.922;12.198;2023-05-07T14:29:56;3.70;;;3.40;;
483;SDS011;228;48.922;12.198;2023-05-07T14:32:22;2.95;;;2.75;;
483;SDS011;228;48.922;12.198;2023-05-07T14:34:48;3.65;;;2.72;;
483;SDS011;228;48.922;12.198;2023-05-07T14:37:15;3.50;;;3.20;;
483;SDS011;228;48.922;12.198;2023-05-07T14:39:41;3.10;;;2.90;;
483;SDS011;228;48.922;12.198;2023-05-07T14:42:07;3.90;;;3.60;;
483;SDS011;228;48.922;12.198;2023-05-07T14:44:34;4.00;;;3.70;;
483;SDS011;228;48.922;12.198;2023-05-07T14:47:01;3.90;;;3.60;;
483;SDS011;228;48.922;12.198;2023-05-07T14:49:27;3.30;;;3.00;;
483;SDS011;228;48.922;12.198;2023-05-07T14:51:53;3.47;;;3.17;;
483;SDS011;228;48.922;12.198;2023-05-07T14:54:19;4.10;;;3.60;;
483;SDS011;228;48.922;12.198;2023-05-07T14:56:45;3.80;;;3.50;;
483;SDS011;228;48.922;12.198;2023-05-07T14:59:11;3.80;;;3.50;;
483;SDS011;228;48.922;12.198;2023-05-07T15:01:37;3.80;;;3.50;;
483;SDS011;228;48.922;12.198;2023-05-07T15:04:07;4.18;;;3.78;;
483;SDS011;228;48.922;12.198;2023-05-07T15:06:33;4.68;;;3.58;;
483;SDS011;228;48.922;12.198;2023-05-07T15:08:59;3.90;;;3.50;;
483;SDS011;228;48.922;12.198;2023-05-07T15:11:25;3.90;;;3.60;;
483;SDS011;228;48.922;12.198;2023-05-07T15:13:51;4.22;;;3.65;;
483;SDS011;228;48.922;12.198;2023-05-07T15:16:18;4.15;;;3.85;;
483;SDS011;228;48.922;12.198;2023-05-07T15:18:44;4.22;;;3.83;;
483;SDS011;228;48.922;12.198;2023-05-07T15:21:09;4.30;;;3.90;;
483;SDS011;228;48.922;12.198;2023-05-07T15:23:36;4.60;;;4.18;;
483;SDS011;228;48.922;12.198;2023-05-07T15:26:02;5.50;;;4.13;;
483;SDS011;228;48.922;12.198;2023-05-07T15:28:30;3.85;;;3.55;;
483;SDS011;228;48.922;12.198;2023-05-07T15:30:58;4.32;;;3.92;;
483;SDS011;228;48.922;12.198;2023-05-07T15:33:24;4.28;;;3.88;;
483;SDS011;228;48.922;12.198;2023-05-07T15:35:50;4.47;;;3.63;;
483;SDS011;228;48.922;12.198;2023-05-07T15:38:16;4.30;;;3.90;;
483;SDS011;228;48.922;12.198;2023-05-07T15:40:42;4.22;;;3.72;;
483;SDS011;228;48.922;12.198;2023-05-07T15:43:08;4.85;;;4.32;;
483;SDS011;228;48.922;12.198;2023-05-07T15:45:39;4.40;;;4.00;;
483;SDS011;228;48.922;12.198;2023-05-07T15:48:08;4.82;;;3.92;;
483;SDS011;228;48.922;12.198;2023-05-07T15:50:35;4.47;;;3.92;;
483;SDS011;228;48.922;12.198;2023-05-07T15:53:02;3.72;;;3.42;;
483;SDS011;228;48.922;12.198;2023-05-07T15:55:30;4.00;;;3.47;;
483;SDS011;228;48.922;12.198;2023-05-07T15:58:02;3.92;;;3.42;;
483;SDS011;228;48.922;12.198;2023-05-07T16:00:33;4.30;;;3.85;;
483;SDS011;228;48.922;12.198;2023-05-07T16:03:06;4.10;;;3.42;;
483;SDS011;228;48.922;12.198;2023-05-07T16:05:40;4.22;;;3.63;;
483;SDS011;228;48.922;12.198;2023-05-07T16:08:44;5.75;;;4.05;;
483;SDS011;228;48.922;12.198;2023-05-07T16:11:10;7.18;;;4.75;;
483;SDS011;228;48.922;12.198;2023-05-07T16:13:36;4.80;;;4.30;;
483;SDS011;228;48.922;12.198;2023-05-07T16:16:02;5.18;;;4.57;;
483;SDS011;228;48.922;12.198;2023-05-07T16:18:29;5.63;;;5.03;;
483;SDS011;228;48.922;12.198;2023-05-07T16:20:55;4.57;;;4.07;;
483;SDS011;228;48.922;12.198;2023-05-07T16:23:22;5.32;;;4.68;;
483;SDS011;228;48.922;12.198;2023-05-07T16:25:48;4.60;;;4.10;;
483;SDS011;228;48.922;12.198;2023-05-07T16:28:14;5.05;;;4.55;;
483;SDS011;228;48.922;12.198;2023-05-07T16:30:41;4.70;;;4.30;;
483;SDS011;228;48.922;12.198;2023-05-07T16:33:07;6.00;;;4.70;;
483;SDS011;228;48.922;12.198;2023-05-07T16:35:33;5.63;;;4.53;;
483;SDS011;228;48.922;12.198;2023-05-07T16:37:59;5.68;;;4.72;;
483;SDS011;228;48.922;12.198;2023-05-07T16:40:25;5.90;;;4.88;;
483;SDS011;228;48.922;12.198;2023-05-07T16:42:51;5.72;;;4.60;;
483;SDS011;228;48.922;12.198;2023-05-07T16:45:18;5.38;;;4.88;;
483;SDS011;228;48.922;12.198;2023-05-07T16:47:44;5.63;;;5.03;;
483;SDS011;228;48.922;12.198;2023-05-07T16:50:10;5.95;;;5.35;;
483;SDS011;228;48.922;12.198;2023-05-07T16:52:36;5.25;;;4.63;;
483;SDS011;228;48.922;12.198;2023-05-07T16:55:02;5.18;;;4.68;;
483;SDS011;228;48.922;12.198;2023-05-07T16:57:29;6.57;;;5.00;;
483;SDS011;228;48.922;12.198;2023-05-07T16:59:55;7.32;;;4.90;;
483;SDS011;228;48.922;12.198;2023-05-07T17:02:21;5.72;;;5.15;;
483;SDS011;228;48.922;12.198;2023-05-07T17:04:47;4.88;;;4.45;;
483;SDS011;228;48.922;12.198;2023-05-07T17:07:13;5.88;;;5.25;;
483;SDS011;228;48.922;12.198;2023-05-07T17:09:40;5.82;;;5.22;;
483;SDS011;228;48.922;12.198;2023-05-07T17:12:06;6.95;;;5.75;;
483;SDS011;228;48.922;12.198;2023-05-07T17:14:32;6.55;;;5.50;;
483;SDS011;228;48.922;12.198;2023-05-07T17:16:58;6.38;;;5.47;;
483;SDS011;228;48.922;12.198;2023-05-07T17:19:24;6.85;;;5.78;;
483;SDS011;228;48.922;12.198;2023-05-07T17:21:50;9.98;;;6.30;;
483;SDS011;228;48.922;12.198;2023-05-07T17:24:16;6.60;;;5.63;;
483;SDS011;228;48.922;12.198;2023-05-07T17:26:42;6.30;;;5.70;;
483;SDS011;228;48.922;12.198;2023-05-07T17:29:08;6.78;;;5.85;;
483;SDS011;228;48.922;12.198;2023-05-07T17:31:34;6.20;;;5.57;;
483;SDS011;228;48.922;12.198;2023-05-07T17:34:00;6.18;;;5.57;;
483;SDS011;228;48.922;12.198;2023-05-07T17:36:27;6.78;;;5.47;;
483;SDS011;228;48.922;12.198;2023-05-07T17:38:53;6.70;;;6.00;;
483;SDS011;228;48.922;12.198;2023-05-07T17:41:19;6.10;;;5.50;;
483;SDS011;228;48.922;12.198;2023-05-07T17:43:46;7.90;;;5.72;;
483;SDS011;228;48.922;12.198;2023-05-07T17:46:12;6.28;;;5.68;;
483;SDS011;228;48.922;12.198;2023-05-07T17:48:38;6.65;;;5.68;;
483;SDS011;228;48.922;12.198;2023-05-07T17:51:05;7.50;;;5.63;;
483;SDS011;228;48.922;12.198;2023-05-07T17:53:30;7.55;;;5.82;;
483;SDS011;228;48.922;12.198;2023-05-07T17:55:56;6.07;;;5.47;;
483;SDS011;228;48.922;12.198;2023-05-07T17:58:22;6.50;;;5.72;;
483;SDS011;228;48.922;12.198;2023-05-07T18:00:52;6.82;;;5.57;;
483;SDS011;228;48.922;12.198;2023-05-07T18:03:19;6.82;;;5.78;;
483;SDS011;228;48.922;12.198;2023-05-07T18:05:45;7.18;;;5.82;;
483;SDS011;228;48.922;12.198;2023-05-07T18:08:11;6.85;;;6.03;;
483;SDS011;228;48.922;12.198;2023-05-07T18:10:37;6.57;;;5.35;;
483;SDS011;228;48.922;12.198;2023-05-07T18:13:03;6.88;;;5.88;;
483;SDS011;228;48.922;12.198;2023-05-07T18:15:29;6.57;;;5.47;;
483;SDS011;228;48.922;12.198;2023-05-07T18:17:55;8.75;;;6.03;;
483;SDS011;228;48.922;12.198;2023-05-07T18:20:21;7.50;;;5.75;;
483;SDS011;228;48.922;12.198;2023-05-07T18:22:47;6.32;;;5.35;;
483;SDS011;228;48.922;12.198;2023-05-07T18:25:13;6.38;;;5.35;;
483;SDS011;228;48.922;12.198;2023-05-07T18:27:40;6.00;;;5.40;;
483;SDS011;228;48.922;12.198;2023-05-07T18:30:06;7.13;;;5.65;;
483;SDS011;228;48.922;12.198;2023-05-07T18:32:35;6.28;;;5.35;;
483;SDS011;228;48.922;12.198;2023-05-07T18:35:01;7.05;;;5.70;;
483;SDS011;228;48.922;12.198;2023-05-07T18:37:28;7.22;;;5.90;;
483;SDS011;228;48.922;12.198;2023-05-07T18:39:54;6.38;;;5.70;;
483;SDS011;228;48.922;12.198;2023-05-07T18:42:20;7.03;;;5.88;;
483;SDS011;228;48.922;12.198;2023-05-07T18:44:46;6.50;;;5.57;;
483;SDS011;228;48.922;12.198;2023-05-07T18:47:12;7.68;;;5.38;;
483;SDS011;228;48.922;12.198;2023-05-07T18:49:38;6.68;;;5.97;;
483;SDS011;228;48.922;12.198;2023-05-07T18:52:04;8.93;;;6.27;;
483;SDS011;228;48.922;12.198;2023-05-07T18:54:31;8.70;;;6.80;;
483;SDS011;228;48.922;12.198;2023-05-07T18:56:57;7.83;;;6.27;;
483;SDS011;228;48.922;12.198;2023-05-07T18:59:23;7.77;;;6.30;;
483;SDS011;228;48.922;12.198;2023-05-07T19:01:49;7.77;;;6.30;;
483;SDS011;228;48.922;12.198;2023-05-07T19:04:16;7.77;;;6.53;;
483;SDS011;228;48.922;12.198;2023-05-07T19:06:42;7.67;;;6.53;;
483;SDS011;228;48.922;12.198;2023-05-07T19:09:08;6.70;;;6.00;;
483;SDS011;228;48.922;12.198;2023-05-07T19:11:34;8.47;;;6.13;;
483;SDS011;228;48.922;12.198;2023-05-07T19:14:00;8.67;;;6.53;;
483;SDS011;228;48.922;12.198;2023-05-07T19:16:26;7.60;;;6.60;;
483;SDS011;228;48.922;12.198;2023-05-07T19:18:52;8.50;;;6.43;;
483;SDS011;228;48.922;12.198;2023-05-07T19:21:18;8.20;;;6.70;;
483;SDS011;228;48.922;12.198;2023-05-07T19:23:44;7.57;;;6.53;;
483;SDS011;228;48.922;12.198;2023-05-07T19:26:10;7.57;;;6.23;;
483;SDS011;228;48.922;12.198;2023-05-07T19:28:37;7.53;;;6.20;;
483;SDS011;228;48.922;12.198;2023-05-07T19:31:04;8.37;;;6.47;;
483;SDS011;228;48.922;12.198;2023-05-07T19:33:29;10.90;;;6.70;;
483;SDS011;228;48.922;12.198;2023-05-07T19:35:56;8.33;;;6.60;;
483;SDS011;228;48.922;12.198;2023-05-07T19:38:23;7.53;;;6.17;;
483;SDS011;228;48.922;12.198;2023-05-07T19:40:51;8.00;;;6.43;;
483;SDS011;228;48.922;12.198;2023-05-07T19:43:18;7.30;;;6.30;;
483;SDS011;228;48.922;12.198;2023-05-07T19:45:44;6.37;;;5.47;;
483;SDS011;228;48.922;12.198;2023-05-07T19:48:12;9.10;;;6.27;;
483;SDS011;228;48.922;12.198;2023-05-07T19:50:39;7.57;;;6.07;;
483;SDS011;228;48.922;12.198;2023-05-07T19:53:06;9.10;;;6.37;;
483;SDS011;228;48.922;12.198;2023-05-07T19:55:32;7.17;;;6.00;;